Time;durP1;ratioP1;P1;durP2;ratioP2;P2;SDS_P1;SDS_P2;PMS_P1;PMS_P2;Temp;Humidity;BMP_temperature;BMP_pressure;BME280_temperature;BME280_humidity;BME280_pressure;Samples;Min_cycle;Max_cycle;Signal;HPM_P1;HPM_P2
2023/04/01 00:01:31;;;;;;;51.63;27.83;;;;;;;;;;5034838;28;20204;-51
2023/04/01 00:03:58;;;;;;;60.58;29.30;;;;;;;;;;5034864;28;20205;-51
2023/04/01 00:06:27;;;;;;;69.25;31.48;;;;;;;;;;5034766;28;20197;-54
2023/04/01 00:08:55;;;;;;;69.22;30.38;;;;;;;;;;5034551;28;20232;-54
2023/04/01 00:11:22;;;;;;;65.47;31.08;;;;;;;;;;5034294;28;20200;-55
2023/04/01 00:13:49;;;;;;;59.15;30.80;;;;;;;;;;5034656;28;20680;-55
2023/04/01 00:16:17;;;;;;;57.03;29.63;;;;;;;;;;5034111;28;20212;-55
2023/04/01 00:18:50;;;;;;;178.10;82.65;;;;;;;;;;5034395;28;20197;-55
2023/04/01 00:21:18;;;;;;;116.13;85.15;;;;;;;;;;5034220;28;20196;-51
2023/04/01 00:23:46;;;;;;;78.35;44.97;;;;;;;;;;5034289;28;20212;-54
2023/04/01 00:26:14;;;;;;;64.28;33.63;;;;;;;;;;5033913;28;20211;-51
2023/04/01 00:28:42;;;;;;;57.17;31.08;;;;;;;;;;5034026;28;20208;-54
2023/04/01 00:31:10;;;;;;;61.28;31.38;;;;;;;;;;5016609;28;20208;-55
2023/04/01 00:33:38;;;;;;;63.20;31.13;;;;;;;;;;5049706;28;20200;-52
2023/04/01 00:36:26;;;;;;;61.03;31.15;;;;;;;;;;5034142;28;20209;-52
2023/04/01 00:38:53;;;;;;;54.78;29.80;;;;;;;;;;5033475;28;20207;-52
2023/04/01 00:41:20;;;;;;;52.08;29.30;;;;;;;;;;5034197;28;20207;-53
2023/04/01 00:43:50;;;;;;;43.35;25.27;;;;;;;;;;5033785;28;20208;-55
2023/04/01 00:46:18;;;;;;;51.13;29.02;;;;;;;;;;5033870;28;20258;-55
2023/04/01 00:48:52;;;;;;;54.95;28.30;;;;;;;;;;5033673;28;20215;-54
2023/04/01 00:51:22;;;;;;;53.30;28.95;;;;;;;;;;5033734;28;20200;-51
2023/04/01 00:53:51;;;;;;;52.95;28.70;;;;;;;;;;5000641;28;20185;-52
2023/04/01 00:56:25;;;;;;;51.00;28.05;;;;;;;;;;5049207;28;20212;-51
2023/04/01 00:58:58;;;;;;;44.15;26.15;;;;;;;;;;5016425;28;20661;-53
2023/04/01 01:01:25;;;;;;;49.17;27.00;;;;;;;;;;5016191;28;20201;-55
2023/04/01 01:03:53;;;;;;;45.78;26.20;;;;;;;;;;5016369;28;20211;-54
2023/04/01 01:06:23;;;;;;;51.17;29.55;;;;;;;;;;5032349;28;20666;-53
2023/04/01 01:09:00;;;;;;;53.35;28.10;;;;;;;;;;5049189;28;20224;-51
2023/04/01 01:11:37;;;;;;;51.13;29.27;;;;;;;;;;5015897;28;20749;-55
2023/04/01 01:14:34;;;;;;;88.95;61.58;;;;;;;;;;5000761;28;20200;-56
2023/04/01 01:17:20;;;;;;;52.25;29.52;;;;;;;;;;5049008;28;20243;-54
2023/04/01 01:20:25;;;;;;;44.13;26.00;;;;;;;;;;5016007;28;20200;-54
2023/04/01 01:23:27;;;;;;;46.33;27.38;;;;;;;;;;5033712;28;20193;-55
2023/04/01 01:26:24;;;;;;;45.03;26.67;;;;;;;;;;5033603;28;20195;-51
2023/04/01 01:29:12;;;;;;;47.58;26.48;;;;;;;;;;5033351;28;20208;-54
2023/04/01 01:32:02;;;;;;;43.58;25.67;;;;;;;;;;5033280;28;20197;-53
2023/04/01 01:34:39;;;;;;;47.30;26.45;;;;;;;;;;5015827;28;20254;-52
2023/04/01 01:37:11;;;;;;;42.60;25.05;;;;;;;;;;5001142;28;20204;-53
2023/04/01 01:39:39;;;;;;;39.05;24.48;;;;;;;;;;5019642;28;20215;-52
2023/04/01 01:42:10;;;;;;;44.53;25.77;;;;;;;;;;5019893;28;20212;-51
2023/04/01 01:44:38;;;;;;;49.55;26.48;;;;;;;;;;5036661;28;20208;-54
2023/04/01 01:47:06;;;;;;;45.35;26.70;;;;;;;;;;5052418;28;20200;-52
2023/04/01 01:49:33;;;;;;;43.15;25.63;;;;;;;;;;5037039;28;20722;-52
2023/04/01 01:52:01;;;;;;;44.22;26.08;;;;;;;;;;5052553;28;20205;-54
2023/04/01 01:54:28;;;;;;;46.22;26.75;;;;;;;;;;5019597;28;20197;-54
2023/04/01 01:57:10;;;;;;;49.97;27.40;;;;;;;;;;5019705;28;20204;-54
2023/04/01 01:59:42;;;;;;;47.72;26.45;;;;;;;;;;5019376;28;20209;-53
2023/04/01 02:02:13;;;;;;;45.55;25.88;;;;;;;;;;5003704;28;20204;-52
2023/04/01 02:04:43;;;;;;;44.13;25.83;;;;;;;;;;5019908;28;20291;-54
2023/04/01 02:07:16;;;;;;;45.30;26.45;;;;;;;;;;5019317;28;20715;-53
2023/04/01 02:09:43;;;;;;;65.60;31.85;;;;;;;;;;5003109;28;20763;-53
2023/04/01 02:12:12;;;;;;;402.50;236.50;;;;;;;;;;5019305;28;20205;-53
2023/04/01 02:14:54;;;;;;;383.63;238.50;;;;;;;;;;5003152;28;20197;-52
2023/04/01 02:17:24;;;;;;;67.72;36.03;;;;;;;;;;5014586;28;20228;-54
2023/04/01 02:20:05;;;;;;;51.05;27.77;;;;;;;;;;4998817;28;20201;-52
2023/04/01 02:22:41;;;;;;;47.28;26.55;;;;;;;;;;4998628;28;20250;-53
2023/04/01 02:25:12;;;;;;;63.47;29.58;;;;;;;;;;4982498;28;20207;-56
2023/04/01 02:27:42;;;;;;;56.35;27.75;;;;;;;;;;4998856;28;20202;-54
2023/04/01 02:30:11;;;;;;;59.40;29.52;;;;;;;;;;4998256;28;20300;-53
2023/04/01 02:32:39;;;;;;;59.50;29.33;;;;;;;;;;4982635;28;20228;-51
2023/04/01 02:35:10;;;;;;;80.32;44.85;;;;;;;;;;4998207;28;20729;-51
2023/04/01 02:37:41;;;;;;;47.97;27.17;;;;;;;;;;4998298;28;20252;-54
2023/04/01 02:40:11;;;;;;;56.22;27.35;;;;;;;;;;5014493;28;20683;-51
2023/04/01 02:42:39;;;;;;;39.80;23.88;;;;;;;;;;4998336;28;20210;-55
2023/04/01 02:45:07;;;;;;;48.80;25.98;;;;;;;;;;4982006;28;20207;-52
2023/04/01 02:47:34;;;;;;;52.28;26.13;;;;;;;;;;5001065;28;20262;-52
2023/04/01 02:50:02;;;;;;;47.80;25.42;;;;;;;;;;5018584;28;20225;-51
2023/04/01 02:52:29;;;;;;;49.00;26.23;;;;;;;;;;5018285;28;20204;-55
2023/04/01 02:55:00;;;;;;;208.40;93.97;;;;;;;;;;5018721;28;20197;-54
2023/04/01 02:57:29;;;;;;;75.18;39.90;;;;;;;;;;5051278;28;20260;-55
2023/04/01 02:59:56;;;;;;;63.42;28.65;;;;;;;;;;5035791;28;20685;-53
2023/04/01 03:02:24;;;;;;;154.32;74.63;;;;;;;;;;5018260;28;20208;-53
2023/04/01 03:04:51;;;;;;;395.80;217.07;;;;;;;;;;5036091;28;20247;-51
2023/04/01 03:07:18;;;;;;;90.03;45.90;;;;;;;;;;5035870;28;20205;-51
2023/04/01 03:09:45;;;;;;;47.40;27.65;;;;;;;;;;5035553;28;20229;-51
2023/04/01 03:12:13;;;;;;;44.90;26.80;;;;;;;;;;5035689;28;20205;-52
2023/04/01 03:14:48;;;;;;;45.72;27.27;;;;;;;;;;5017985;28;20208;-55
2023/04/01 03:17:16;;;;;;;47.55;26.23;;;;;;;;;;5034217;28;20241;-54
2023/04/01 03:19:44;;;;;;;47.35;27.42;;;;;;;;;;5034512;28;20231;-52
2023/04/01 03:22:12;;;;;;;46.85;27.80;;;;;;;;;;5014446;28;20209;-54
2023/04/01 03:24:39;;;;;;;42.97;27.08;;;;;;;;;;5007327;28;20213;-52
2023/04/01 03:27:06;;;;;;;42.35;27.33;;;;;;;;;;5015982;28;20198;-52
2023/04/01 03:29:34;;;;;;;49.33;28.73;;;;;;;;;;5024261;28;20197;-52
2023/04/01 03:32:02;;;;;;;51.35;27.63;;;;;;;;;;5016644;28;20217;-57
2023/04/01 03:34:29;;;;;;;48.00;28.33;;;;;;;;;;5031107;28;20284;-54
2023/04/01 03:36:56;;;;;;;43.97;26.95;;;;;;;;;;5033344;28;20201;-56
2023/04/01 03:39:25;;;;;;;45.25;26.48;;;;;;;;;;5031998;28;20201;-53
2023/04/01 03:41:52;;;;;;;46.28;28.17;;;;;;;;;;5014865;28;20270;-55
2023/04/01 03:44:19;;;;;;;60.25;33.08;;;;;;;;;;5015304;28;20700;-53
2023/04/01 03:46:50;;;;;;;45.95;28.10;;;;;;;;;;5046737;28;20193;-55
2023/04/01 03:49:17;;;;;;;42.03;26.05;;;;;;;;;;5033680;28;20677;-51
2023/04/01 03:51:45;;;;;;;47.95;26.42;;;;;;;;;;5031989;28;20709;-54
2023/04/01 03:54:12;;;;;;;41.35;26.65;;;;;;;;;;5015765;28;20201;-58
2023/04/01 03:56:40;;;;;;;188.88;97.55;;;;;;;;;;5015840;28;20565;-52
2023/04/01 03:59:08;;;;;;;72.63;40.13;;;;;;;;;;5032078;28;20196;-55
2023/04/01 04:01:35;;;;;;;53.05;30.08;;;;;;;;;;5032963;28;20209;-56
2023/04/01 04:04:02;;;;;;;49.75;29.25;;;;;;;;;;5033403;28;20205;-53
2023/04/01 04:06:30;;;;;;;42.17;26.60;;;;;;;;;;5030572;28;20251;-55
2023/04/01 04:08:57;;;;;;;45.42;26.80;;;;;;;;;;5032073;28;20201;-54
2023/04/01 04:11:26;;;;;;;41.72;26.13;;;;;;;;;;5015534;28;20224;-52
2023/04/01 04:13:53;;;;;;;44.17;26.90;;;;;;;;;;5015618;28;20228;-52
2023/04/01 04:16:22;;;;;;;42.53;27.52;;;;;;;;;;5031655;28;20201;-53
2023/04/01 04:18:56;;;;;;;46.33;28.70;;;;;;;;;;5015163;28;20272;-55
2023/04/01 04:21:23;;;;;;;47.20;29.65;;;;;;;;;;5015302;28;20208;-51
2023/04/01 04:23:51;;;;;;;45.58;27.98;;;;;;;;;;5015380;28;20201;-54
2023/04/01 04:26:20;;;;;;;48.60;27.38;;;;;;;;;;5031521;28;20243;-52
2023/04/01 04:28:56;;;;;;;44.13;26.33;;;;;;;;;;5015168;28;20235;-52
2023/04/01 04:31:25;;;;;;;46.55;27.90;;;;;;;;;;5031082;28;20724;-55
2023/04/01 04:33:55;;;;;;;45.67;27.10;;;;;;;;;;5015342;28;20616;-53
2023/04/01 04:36:22;;;;;;;48.28;28.58;;;;;;;;;;5014992;28;20193;-56
2023/04/01 04:38:51;;;;;;;45.10;27.92;;;;;;;;;;5029182;28;20201;-52
2023/04/01 04:41:19;;;;;;;50.05;29.00;;;;;;;;;;5015296;28;20275;-54
2023/04/01 04:43:53;;;;;;;45.33;28.17;;;;;;;;;;5014438;28;20661;-52
2023/04/01 04:46:22;;;;;;;42.80;27.92;;;;;;;;;;5015200;28;20196;-55
2023/04/01 04:48:54;;;;;;;44.38;27.10;;;;;;;;;;5013008;28;20204;-55
2023/04/01 04:51:22;;;;;;;47.92;27.55;;;;;;;;;;5031209;28;20223;-55
2023/04/01 04:53:49;;;;;;;48.45;28.50;;;;;;;;;;5014894;28;20201;-54
2023/04/01 04:56:22;;;;;;;44.28;26.83;;;;;;;;;;5014882;28;20201;-54
2023/04/01 04:58:59;;;;;;;46.13;27.92;;;;;;;;;;5029361;28;20292;-52
2023/04/01 05:01:39;;;;;;;47.03;26.55;;;;;;;;;;5000311;28;20551;-53
2023/04/01 05:04:07;;;;;;;42.25;26.70;;;;;;;;;;5032237;28;20193;-53
2023/04/01 05:06:34;;;;;;;69.57;38.83;;;;;;;;;;5014542;28;20209;-55
2023/04/01 05:09:01;;;;;;;115.93;58.00;;;;;;;;;;5014866;28;20212;-53
2023/04/01 05:11:29;;;;;;;80.32;49.00;;;;;;;;;;5013961;28;20236;-55
2023/04/01 05:13:56;;;;;;;51.15;30.25;;;;;;;;;;5014682;28;20201;-52
2023/04/01 05:16:23;;;;;;;42.13;27.77;;;;;;;;;;5014105;28;20209;-54
2023/04/01 05:18:51;;;;;;;50.55;30.95;;;;;;;;;;5014158;28;20223;-55
2023/04/01 05:21:18;;;;;;;47.17;29.75;;;;;;;;;;5014767;28;20284;-56
2023/04/01 05:23:45;;;;;;;47.95;30.02;;;;;;;;;;5014310;28;20654;-55
2023/04/01 05:26:14;;;;;;;43.40;27.88;;;;;;;;;;5014697;28;20199;-53
2023/04/01 05:28:41;;;;;;;49.90;28.88;;;;;;;;;;5030633;28;20189;-51
2023/04/01 05:31:09;;;;;;;50.03;30.98;;;;;;;;;;5032050;28;20224;-54
2023/04/01 05:33:43;;;;;;;46.22;28.27;;;;;;;;;;5030934;28;20557;-52
2023/04/01 05:36:13;;;;;;;44.28;28.70;;;;;;;;;;5028045;28;20196;-51
2023/04/01 05:38:42;;;;;;;49.28;28.67;;;;;;;;;;5030644;28;20196;-56
2023/04/01 05:41:11;;;;;;;46.30;28.92;;;;;;;;;;5014634;28;20197;-53
2023/04/01 05:43:43;;;;;;;42.80;27.90;;;;;;;;;;5014378;28;20235;-55
2023/04/01 05:46:39;;;;;;;45.83;28.88;;;;;;;;;;5021628;28;20657;-49
2023/04/01 05:49:19;;;;;;;45.55;28.45;;;;;;;;;;5014573;28;20184;-49
2023/04/01 05:51:49;;;;;;;53.78;31.83;;;;;;;;;;5028010;28;20225;-54
2023/04/01 05:54:16;;;;;;;47.97;28.45;;;;;;;;;;5014167;28;20560;-51
2023/04/01 05:56:44;;;;;;;50.15;30.27;;;;;;;;;;5030508;28;20201;-52
2023/04/01 05:59:14;;;;;;;46.88;30.77;;;;;;;;;;5014273;28;20193;-51
2023/04/01 06:01:42;;;;;;;47.58;31.73;;;;;;;;;;5030320;28;20557;-55
2023/04/01 06:04:17;;;;;;;51.33;32.50;;;;;;;;;;5030606;28;20258;-56
2023/04/01 06:06:45;;;;;;;51.92;31.42;;;;;;;;;;5042856;28;20207;-55
2023/04/01 06:09:14;;;;;;;55.70;33.08;;;;;;;;;;5031708;28;20204;-53
2023/04/01 06:11:52;;;;;;;51.85;33.17;;;;;;;;;;5009395;28;20236;-51
2023/04/01 06:14:26;;;;;;;58.33;34.25;;;;;;;;;;5030429;28;20236;-50
2023/04/01 06:17:22;;;;;;;53.28;32.08;;;;;;;;;;5012736;28;20599;-52
2023/04/01 06:20:08;;;;;;;54.42;33.17;;;;;;;;;;5042349;28;20256;-54
2023/04/01 06:22:54;;;;;;;57.97;34.13;;;;;;;;;;5026580;28;20224;-53
2023/04/01 06:25:26;;;;;;;487.52;238.13;;;;;;;;;;5032794;28;20220;-55
2023/04/01 06:28:31;;;;;;;122.97;68.85;;;;;;;;;;5018429;28;20243;-56
2023/04/01 06:31:06;;;;;;;64.68;38.95;;;;;;;;;;5017934;28;20232;-57
2023/04/01 06:34:15;;;;;;;58.13;34.22;;;;;;;;;;5002989;28;20232;-51
2023/04/01 06:36:52;;;;;;;67.93;37.03;;;;;;;;;;5014994;28;20259;-52
2023/04/01 06:39:26;;;;;;;62.20;36.08;;;;;;;;;;5041224;28;20213;-53
2023/04/01 06:42:31;;;;;;;62.10;35.85;;;;;;;;;;5013736;28;20231;-51
2023/04/01 06:45:26;;;;;;;53.03;33.88;;;;;;;;;;5029106;28;20232;-57
2023/04/01 06:48:22;;;;;;;61.72;35.70;;;;;;;;;;4999511;28;20220;-55
2023/04/01 06:51:34;;;;;;;46.72;32.20;;;;;;;;;;5032051;28;20232;-55
2023/04/01 06:54:39;;;;;;;56.90;33.08;;;;;;;;;;4985629;28;20303;-54
2023/04/01 06:57:28;;;;;;;55.15;34.15;;;;;;;;;;5014695;28;20221;-50
2023/04/01 06:59:59;;;;;;;51.17;33.13;;;;;;;;;;5016801;28;20347;-51
2023/04/01 07:02:37;;;;;;;53.90;33.90;;;;;;;;;;4999849;28;20323;-50
2023/04/01 07:05:05;;;;;;;57.38;35.25;;;;;;;;;;5015743;28;20224;-57
2023/04/01 07:07:32;;;;;;;74.13;42.90;;;;;;;;;;5031517;28;20221;-54
2023/04/01 07:10:06;;;;;;;52.40;36.60;;;;;;;;;;5014806;28;20229;-56
2023/04/01 07:12:56;;;;;;;60.30;38.33;;;;;;;;;;4985274;28;20225;-50
2023/04/01 07:15:55;;;;;;;56.10;36.95;;;;;;;;;;5018997;28;20216;-56
2023/04/01 07:18:32;;;;;;;60.40;37.65;;;;;;;;;;5027147;28;20243;-54
2023/04/01 07:21:00;;;;;;;59.63;36.17;;;;;;;;;;5047892;28;20259;-51
2023/04/01 07:23:33;;;;;;;60.17;37.70;;;;;;;;;;5017027;28;20217;-54
2023/04/01 07:26:19;;;;;;;57.88;38.28;;;;;;;;;;5016874;28;20583;-52
2023/04/01 07:29:21;;;;;;;56.22;39.20;;;;;;;;;;4971786;28;20202;-51
2023/04/01 07:32:06;;;;;;;51.00;36.65;;;;;;;;;;4955146;28;20909;-51
2023/04/01 07:34:46;;;;;;;188.10;94.65;;;;;;;;;;4956633;28;20191;-53
2023/04/01 07:37:22;;;;;;;232.40;115.18;;;;;;;;;;4973572;28;20234;-54
2023/04/01 07:40:37;;;;;;;73.50;43.83;;;;;;;;;;4989513;28;20194;-52
2023/04/01 07:43:55;;;;;;;51.08;35.55;;;;;;;;;;4931576;28;20203;-52
2023/04/01 07:46:39;;;;;;;53.78;34.75;;;;;;;;;;4923421;29;20204;-55
2023/04/01 07:49:17;;;;;;;53.97;32.60;;;;;;;;;;4912177;29;20232;-56
2023/04/01 07:51:47;;;;;;;51.60;33.38;;;;;;;;;;4905396;29;20269;-51
2023/04/01 07:54:48;;;;;;;39.72;29.92;;;;;;;;;;4924348;29;20249;-52
2023/04/01 07:57:22;;;;;;;44.22;30.52;;;;;;;;;;4897234;29;20559;-51
2023/04/01 08:00:21;;;;;;;36.45;27.80;;;;;;;;;;4933319;29;20209;-52
2023/04/01 08:03:42;;;;;;;34.78;25.77;;;;;;;;;;4944209;28;20199;-51
2023/04/01 08:06:42;;;;;;;38.92;26.20;;;;;;;;;;4959530;28;20214;-51
2023/04/01 08:09:20;;;;;;;35.67;25.80;;;;;;;;;;4940664;28;20691;-53
2023/04/01 08:12:11;;;;;;;35.35;24.25;;;;;;;;;;4965147;28;20223;-54
2023/04/01 08:15:15;;;;;;;29.58;21.55;;;;;;;;;;4952815;28;20230;-50
2023/04/01 08:17:55;;;;;;;27.17;21.38;;;;;;;;;;4963243;28;20238;-51
2023/04/01 08:20:28;;;;;;;28.58;22.77;;;;;;;;;;4964950;28;20271;-50
2023/04/01 08:23:23;;;;;;;29.63;21.85;;;;;;;;;;5019210;28;20208;-50
2023/04/01 08:26:04;;;;;;;36.38;24.80;;;;;;;;;;5005906;28;20204;-51
2023/04/01 08:28:46;;;;;;;31.45;23.50;;;;;;;;;;5017591;28;20209;-51
2023/04/01 08:31:33;;;;;;;24.35;17.75;;;;;;;;;;4999144;28;20233;-54
2023/04/01 08:34:04;;;;;;;21.90;16.42;;;;;;;;;;5031467;28;20254;-53
2023/04/01 08:36:36;;;;;;;23.05;18.00;;;;;;;;;;5014835;28;20205;-53
2023/04/01 08:39:21;;;;;;;27.52;20.27;;;;;;;;;;4999688;28;20212;-52
2023/04/01 08:42:05;;;;;;;23.23;18.70;;;;;;;;;;5014137;28;20592;-54
2023/04/01 08:45:10;;;;;;;25.35;19.80;;;;;;;;;;5016313;28;20205;-54
2023/04/01 08:48:08;;;;;;;26.02;19.25;;;;;;;;;;5029359;28;20220;-51
2023/04/01 08:50:54;;;;;;;26.83;17.15;;;;;;;;;;5040675;28;20283;-51
2023/04/01 08:53:48;;;;;;;20.30;14.68;;;;;;;;;;5027782;28;20225;-54
2023/04/01 08:56:24;;;;;;;19.58;15.15;;;;;;;;;;5027932;28;20751;-59
2023/04/01 08:59:15;;;;;;;28.73;21.13;;;;;;;;;;5012942;28;20243;-53
2023/04/01 09:01:43;;;;;;;19.40;15.50;;;;;;;;;;5043990;28;20656;-53
2023/04/01 09:04:49;;;;;;;17.40;12.45;;;;;;;;;;5030178;28;20270;-51
2023/04/01 09:07:28;;;;;;;16.05;12.52;;;;;;;;;;5029902;28;20693;-55
2023/04/01 09:10:17;;;;;;;23.30;15.40;;;;;;;;;;5011454;28;20220;-56
2023/04/01 09:12:57;;;;;;;16.00;13.15;;;;;;;;;;5028553;28;20329;-55
2023/04/01 09:15:59;;;;;;;15.65;11.75;;;;;;;;;;5028309;28;20223;-57
2023/04/01 09:18:36;;;;;;;15.38;12.63;;;;;;;;;;4996537;28;20317;-52
2023/04/01 09:21:34;;;;;;;10.77;8.23;;;;;;;;;;5028141;28;20232;-53
2023/04/01 09:24:21;;;;;;;8.38;7.25;;;;;;;;;;5026083;28;20220;-53
2023/04/01 09:26:57;;;;;;;8.95;7.18;;;;;;;;;;5029298;28;20236;-53
2023/04/01 09:29:31;;;;;;;11.82;8.27;;;;;;;;;;5032504;28;20220;-54
2023/04/01 09:32:27;;;;;;;12.13;9.32;;;;;;;;;;5014230;28;20237;-53
2023/04/01 09:35:36;;;;;;;12.70;9.52;;;;;;;;;;5020997;28;20230;-54
2023/04/01 09:38:21;;;;;;;11.35;8.10;;;;;;;;;;5028682;28;20279;-57
2023/04/01 09:40:52;;;;;;;10.80;8.00;;;;;;;;;;5046031;28;20588;-53
2023/04/01 09:44:03;;;;;;;8.85;7.03;;;;;;;;;;5045302;28;20232;-57
2023/04/01 09:46:43;;;;;;;15.90;11.25;;;;;;;;;;5027282;28;20220;-54
2023/04/01 09:49:42;;;;;;;14.73;8.93;;;;;;;;;;5012369;28;20228;-55
2023/04/01 09:52:23;;;;;;;10.25;7.25;;;;;;;;;;5012174;28;20314;-53
2023/04/01 09:55:19;;;;;;;8.90;6.20;;;;;;;;;;5012106;28;20925;-50
2023/04/01 09:58:12;;;;;;;8.00;6.47;;;;;;;;;;5012295;28;20239;-54
2023/04/01 10:01:12;;;;;;;10.05;7.20;;;;;;;;;;5026194;28;20775;-52
2023/04/01 10:03:58;;;;;;;10.52;7.25;;;;;;;;;;5031293;28;20424;-51
2023/04/01 10:06:38;;;;;;;10.07;7.40;;;;;;;;;;5025599;28;20224;-51
2023/04/01 10:09:20;;;;;;;9.07;7.13;;;;;;;;;;5016155;28;20229;-54
2023/04/01 10:12:10;;;;;;;9.25;7.28;;;;;;;;;;5015625;28;20225;-58
2023/04/01 10:15:05;;;;;;;9.07;7.72;;;;;;;;;;5017002;28;20324;-55
2023/04/01 10:17:54;;;;;;;10.20;7.25;;;;;;;;;;5032600;28;20270;-55
2023/04/01 10:20:39;;;;;;;10.82;6.90;;;;;;;;;;5033530;28;20957;-54
2023/04/01 10:23:09;;;;;;;9.52;6.45;;;;;;;;;;5026662;28;20624;-53
2023/04/01 10:25:47;;;;;;;8.55;6.32;;;;;;;;;;5016714;28;20296;-52
2023/04/01 10:28:33;;;;;;;15.52;9.45;;;;;;;;;;5039852;28;20244;-55
2023/04/01 10:31:56;;;;;;;5.07;4.50;;;;;;;;;;5035255;28;20225;-52
2023/04/01 10:34:45;;;;;;;8.43;5.30;;;;;;;;;;5017818;28;20216;-55
2023/04/01 10:37:21;;;;;;;9.93;6.22;;;;;;;;;;5035643;28;20295;-55
2023/04/01 10:40:22;;;;;;;7.40;5.68;;;;;;;;;;5034078;28;20224;-52
2023/04/01 10:43:13;;;;;;;6.13;5.43;;;;;;;;;;5035314;28;20227;-54
2023/04/01 10:46:19;;;;;;;9.75;6.50;;;;;;;;;;5017613;28;20278;-55
2023/04/01 10:49:10;;;;;;;8.65;6.88;;;;;;;;;;5017786;28;20264;-53
2023/04/01 10:51:58;;;;;;;8.70;6.45;;;;;;;;;;5018671;28;20221;-52
2023/04/01 10:55:09;;;;;;;10.10;6.38;;;;;;;;;;5005064;28;20255;-53
2023/04/01 10:58:35;;;;;;;11.02;6.97;;;;;;;;;;5024231;28;20570;-55
2023/04/01 11:01:30;;;;;;;8.20;6.28;;;;;;;;;;5033965;28;20665;-53
2023/04/01 11:04:50;;;;;;;7.82;6.20;;;;;;;;;;5033556;28;20185;-54
2023/04/01 11:07:49;;;;;;;16.48;9.98;;;;;;;;;;5017563;28;20232;-56
2023/04/01 11:11:11;;;;;;;11.95;8.90;;;;;;;;;;5011320;28;20221;-52
2023/04/01 11:14:12;;;;;;;10.25;8.88;;;;;;;;;;5042463;28;20225;-55
2023/04/01 11:17:04;;;;;;;12.40;8.25;;;;;;;;;;4987221;28;20290;-51
2023/04/01 11:19:59;;;;;;;24.30;15.00;;;;;;;;;;5021982;28;20227;-50
2023/04/01 11:22:50;;;;;;;109.10;54.47;;;;;;;;;;5047244;28;20228;-51
2023/04/01 11:25:25;;;;;;;16.48;9.52;;;;;;;;;;5031144;28;20253;-50
2023/04/01 11:28:27;;;;;;;9.93;7.38;;;;;;;;;;5012236;28;20212;-51
2023/04/01 11:31:19;;;;;;;9.25;6.57;;;;;;;;;;5047861;28;20224;-53
2023/04/01 11:34:26;;;;;;;9.75;6.75;;;;;;;;;;5029486;28;20225;-51
2023/04/01 11:37:05;;;;;;;9.55;5.60;;;;;;;;;;4988142;28;20220;-57
2023/04/01 11:39:48;;;;;;;8.93;5.50;;;;;;;;;;5016540;28;20243;-52
2023/04/01 11:42:49;;;;;;;71.28;36.63;;;;;;;;;;5032681;28;20228;-53
2023/04/01 11:46:17;;;;;;;12.73;7.82;;;;;;;;;;4971401;28;20223;-51
2023/04/01 11:49:18;;;;;;;9.38;5.60;;;;;;;;;;4920741;29;20223;-50
2023/04/01 11:52:08;;;;;;;11.50;7.00;;;;;;;;;;4968620;28;20230;-52
2023/04/01 11:55:14;;;;;;;12.80;7.35;;;;;;;;;;4970797;28;20229;-54
2023/04/01 11:58:07;;;;;;;9.90;6.20;;;;;;;;;;4969425;28;20355;-55
2023/04/01 12:00:55;;;;;;;11.48;6.75;;;;;;;;;;4972719;28;20201;-53
2023/04/01 12:04:02;;;;;;;33.72;18.52;;;;;;;;;;4972203;28;20577;-51
2023/04/01 12:06:41;;;;;;;18.83;9.20;;;;;;;;;;4962592;28;20617;-51
2023/04/01 12:09:34;;;;;;;12.93;7.47;;;;;;;;;;4970441;28;20238;-57
2023/04/01 12:12:18;;;;;;;13.20;7.25;;;;;;;;;;4972086;28;20714;-54
2023/04/01 12:15:01;;;;;;;15.93;7.68;;;;;;;;;;4971857;28;20223;-56
2023/04/01 12:17:49;;;;;;;13.68;7.53;;;;;;;;;;4975762;28;20237;-50
2023/04/01 12:20:28;;;;;;;14.23;7.97;;;;;;;;;;4986969;28;20574;-55
2023/04/01 12:23:52;;;;;;;145.70;62.33;;;;;;;;;;5000967;28;20248;-51
2023/04/01 12:26:47;;;;;;;19.45;10.95;;;;;;;;;;4991758;28;20252;-52
2023/04/01 12:29:43;;;;;;;27.70;10.52;;;;;;;;;;4991503;28;20232;-51
2023/04/01 12:32:40;;;;;;;12.52;7.78;;;;;;;;;;4982320;28;20240;-50
2023/04/01 12:35:19;;;;;;;17.25;8.30;;;;;;;;;;4970347;28;20226;-50
2023/04/01 12:38:30;;;;;;;12.48;7.28;;;;;;;;;;4991154;28;20260;-50
2023/04/01 12:41:21;;;;;;;12.73;7.82;;;;;;;;;;4913449;29;20243;-54
2023/04/01 12:44:09;;;;;;;13.05;9.25;;;;;;;;;;4975042;28;20225;-52
2023/04/01 12:46:46;;;;;;;14.32;8.80;;;;;;;;;;4991767;28;20236;-51
2023/04/01 12:49:37;;;;;;;104.22;50.22;;;;;;;;;;4990685;28;20222;-57
2023/04/01 12:52:08;;;;;;;31.13;16.80;;;;;;;;;;4994223;28;20218;-50
2023/04/01 12:54:52;;;;;;;16.30;9.50;;;;;;;;;;4996960;28;20221;-49
2023/04/01 12:57:28;;;;;;;13.00;6.60;;;;;;;;;;5014244;28;20725;-50
2023/04/01 13:00:20;;;;;;;11.52;6.05;;;;;;;;;;5030909;28;20236;-49
2023/04/01 13:03:25;;;;;;;15.05;6.68;;;;;;;;;;5031440;28;20228;-49
2023/04/01 13:06:15;;;;;;;10.90;5.30;;;;;;;;;;5029851;28;20271;-49
2023/04/01 13:08:51;;;;;;;7.78;4.25;;;;;;;;;;5047587;28;20236;-55
2023/04/01 13:11:30;;;;;;;25.17;13.68;;;;;;;;;;5025926;28;20228;-52
2023/04/01 13:14:50;;;;;;;6.28;2.88;;;;;;;;;;5025487;28;20262;-50
2023/04/01 13:17:29;;;;;;;6.07;3.25;;;;;;;;;;4963064;28;20291;-50
2023/04/01 13:20:03;;;;;;;12.65;5.05;;;;;;;;;;5024106;28;20308;-52
2023/04/01 13:23:01;;;;;;;12.02;5.75;;;;;;;;;;5030856;28;20231;-55
2023/04/01 13:25:53;;;;;;;11.70;5.00;;;;;;;;;;5031161;28;20220;-51
2023/04/01 13:28:39;;;;;;;12.40;5.60;;;;;;;;;;5036068;28;20221;-52
2023/04/01 13:32:17;;;;;;;27.10;14.27;;;;;;;;;;5014670;28;20224;-56
2023/04/01 13:34:56;;;;;;;8.15;4.40;;;;;;;;;;4949864;28;20230;-54
2023/04/01 13:38:02;;;;;;;5.93;4.30;;;;;;;;;;4971299;28;20231;-58
2023/04/01 13:40:51;;;;;;;8.90;4.50;;;;;;;;;;4969570;28;20223;-57
2023/04/01 13:43:32;;;;;;;9.07;5.15;;;;;;;;;;4971542;28;20700;-55
2023/04/01 13:46:02;;;;;;;13.18;6.30;;;;;;;;;;4970825;28;20719;-54
2023/04/01 13:48:54;;;;;;;13.00;5.82;;;;;;;;;;4963882;28;20743;-56
2023/04/01 13:51:37;;;;;;;17.55;9.73;;;;;;;;;;4968886;28;20546;-52
2023/04/01 13:54:16;;;;;;;8.82;4.40;;;;;;;;;;4970945;28;20234;-59
2023/04/01 13:56:50;;;;;;;7.47;4.45;;;;;;;;;;4970715;28;20281;-55
2023/04/01 13:59:26;;;;;;;8.98;5.10;;;;;;;;;;4955878;28;20226;-55
2023/04/01 14:02:21;;;;;;;11.77;5.50;;;;;;;;;;4970192;28;20233;-53
2023/04/01 14:05:14;;;;;;;9.75;5.00;;;;;;;;;;4994142;28;20224;-54
2023/04/01 14:08:06;;;;;;;8.95;4.82;;;;;;;;;;5031434;28;20229;-56
2023/04/01 14:10:36;;;;;;;36.35;19.20;;;;;;;;;;5018437;28;20221;-56
2023/04/01 14:13:30;;;;;;;7.03;4.90;;;;;;;;;;5030612;28;20645;-53
2023/04/01 14:16:22;;;;;;;13.15;6.45;;;;;;;;;;5029986;28;20224;-54
2023/04/01 14:19:25;;;;;;;7.60;4.47;;;;;;;;;;5030537;28;20239;-52
2023/04/01 14:22:03;;;;;;;5.80;4.50;;;;;;;;;;5031501;28;20228;-52
2023/04/01 14:24:36;;;;;;;10.93;5.38;;;;;;;;;;5032829;28;20579;-51
2023/04/01 14:27:19;;;;;;;15.00;6.72;;;;;;;;;;5031966;28;20225;-51
2023/04/01 14:30:27;;;;;;;15.38;6.88;;;;;;;;;;5032425;28;20228;-52
2023/04/01 14:33:05;;;;;;;15.85;7.22;;;;;;;;;;5028726;28;20234;-51
2023/04/01 14:35:38;;;;;;;7.90;5.70;;;;;;;;;;5032178;28;20231;-51
2023/04/01 14:38:24;;;;;;;11.70;5.50;;;;;;;;;;5014354;28;20217;-50
2023/04/01 14:40:56;;;;;;;9.88;7.07;;;;;;;;;;5040583;28;20229;-52
2023/04/01 14:43:47;;;;;;;12.57;7.00;;;;;;;;;;5030443;28;20217;-54
2023/04/01 14:46:45;;;;;;;11.90;7.15;;;;;;;;;;5040969;28;20217;-52
2023/04/01 14:49:32;;;;;;;14.52;6.85;;;;;;;;;;5035151;28;20221;-50
2023/04/01 14:52:15;;;;;;;11.07;7.60;;;;;;;;;;4997831;28;20690;-50
2023/04/01 14:54:44;;;;;;;11.48;7.88;;;;;;;;;;4998101;28;20608;-59
2023/04/01 14:57:21;;;;;;;11.52;7.22;;;;;;;;;;5027398;28;20226;-51
2023/04/01 15:00:15;;;;;;;10.55;6.50;;;;;;;;;;5025323;28;20771;-51
2023/04/01 15:02:49;;;;;;;21.80;8.88;;;;;;;;;;5033401;28;20327;-55
2023/04/01 15:05:39;;;;;;;11.45;7.25;;;;;;;;;;5031180;28;20228;-55
2023/04/01 15:08:10;;;;;;;13.27;7.28;;;;;;;;;;5032417;28;20235;-53
2023/04/01 15:11:27;;;;;;;46.00;22.42;;;;;;;;;;5034999;28;20232;-50
2023/04/01 15:14:39;;;;;;;10.82;6.95;;;;;;;;;;4974639;28;20242;-51
2023/04/01 15:17:31;;;;;;;21.60;10.35;;;;;;;;;;4933706;29;20779;-51
2023/04/01 15:20:33;;;;;;;79.32;33.65;;;;;;;;;;4988497;28;20761;-50
2023/04/01 15:23:29;;;;;;;21.02;10.70;;;;;;;;;;4992348;28;20346;-51
2023/04/01 15:26:33;;;;;;;12.32;7.43;;;;;;;;;;5004204;28;20224;-53
2023/04/01 15:29:18;;;;;;;11.98;7.55;;;;;;;;;;5012374;28;20222;-54
2023/04/01 15:32:15;;;;;;;9.43;6.55;;;;;;;;;;5006722;28;20225;-52
2023/04/01 15:35:09;;;;;;;8.57;6.53;;;;;;;;;;4985066;28;20724;-55
2023/04/01 15:38:15;;;;;;;10.00;6.95;;;;;;;;;;4992464;28;20225;-54
2023/04/01 15:40:54;;;;;;;18.08;10.35;;;;;;;;;;4995067;28;20262;-54
2023/04/01 15:43:44;;;;;;;16.55;9.60;;;;;;;;;;4994676;28;20224;-58
2023/04/01 15:46:47;;;;;;;14.52;8.50;;;;;;;;;;4999340;28;20210;-58